createdAt,value
2022-07-25T00:00:34.487Z,99676.34
2022-07-25T00:03:04.930Z,99672.38
2022-07-25T00:05:38.186Z,99670.31
2022-07-25T00:08:07.529Z,99664.75
2022-07-25T00:10:36.215Z,99657.28
2022-07-25T00:13:05.259Z,99651.72
2022-07-25T00:15:34.136Z,99654.28
2022-07-25T00:18:04.804Z,99655.69
2022-07-25T00:20:33.507Z,99647.41
2022-07-25T00:23:02.155Z,99648.81
2022-07-25T00:25:30.820Z,99645.97
2022-07-25T00:27:59.440Z,99646.63
2022-07-25T00:30:28.353Z,99638.34
2022-07-25T00:32:56.983Z,99637.88
2022-07-25T00:35:27.349Z,99639.63
2022-07-25T00:37:56.008Z,99634.84
2022-07-25T00:40:24.834Z,99636.25
2022-07-25T00:42:53.463Z,99642.31
2022-07-25T00:45:22.140Z,99635.66
2022-07-25T00:47:50.792Z,99632.78
2022-07-25T00:50:19.483Z,99630.38
2022-07-25T00:52:49.957Z,99626.72
2022-07-25T00:55:18.870Z,99628.97
2022-07-25T00:57:47.545Z,99626.91
2022-07-25T01:00:18.939Z,99617.50
2022-07-25T01:02:47.744Z,99615.44
2022-07-25T01:05:19.650Z,99609.88
2022-07-25T01:07:49.850Z,99601.63
2022-07-25T01:10:18.621Z,99610.03
2022-07-25T01:12:51.420Z,99595.25
2022-07-25T01:15:20.633Z,99595.56
2022-07-25T01:17:49.939Z,99592.38
2022-07-25T01:20:21.349Z,99590.00
2022-07-25T01:22:50.419Z,99584.44
2022-07-25T01:25:19.592Z,99576.19
2022-07-25T01:27:54.859Z,99573.31
2022-07-25T01:30:25.756Z,99570.13
2022-07-25T01:32:54.827Z,99577.75
2022-07-25T01:35:24.913Z,99573.78
2022-07-25T01:37:53.608Z,99567.88
2022-07-25T01:40:22.294Z,99563.94
2022-07-25T01:42:50.962Z,99558.06
2022-07-25T01:45:19.749Z,99557.88
2022-07-25T01:47:48.393Z,99556.63
2022-07-25T01:50:17.189Z,99556.94
2022-07-25T01:52:47.223Z,99561.03
2022-07-25T01:55:16.019Z,99558.16
2022-07-25T01:57:49.465Z,99561.19
2022-07-25T02:00:19.705Z,99552.16
2022-07-25T02:02:48.929Z,99548.94
2022-07-25T02:05:17.688Z,99544.19
2022-07-25T02:07:47.748Z,99552.59
2022-07-25T02:10:16.511Z,99551.31
2022-07-25T02:12:45.148Z,99546.53
2022-07-25T02:15:13.828Z,99538.00
2022-07-25T02:17:42.501Z,99540.19
2022-07-25T02:20:13.048Z,99541.28
2022-07-25T02:22:41.671Z,99540.81
2022-07-25T02:25:12.328Z,99546.81
2022-07-25T02:27:40.984Z,99549.81
2022-07-25T02:30:10.971Z,99543.63
2022-07-25T02:32:39.599Z,99548.06
2022-07-25T02:35:13.257Z,99549.19
2022-07-25T02:37:42.639Z,99545.97
2022-07-25T02:40:14.155Z,99538.50
2022-07-25T02:42:42.837Z,99540.75
2022-07-25T02:45:12.453Z,99534.84
2022-07-25T02:47:41.168Z,99532.78
2022-07-25T02:50:14.730Z,99526.59
2022-07-25T02:52:44.106Z,99531.03
2022-07-25T02:55:14.218Z,99523.25
2022-07-25T02:57:42.880Z,99528.94
2022-07-25T03:00:14.106Z,99531.97
2022-07-25T03:02:43.048Z,99526.09
2022-07-25T03:05:14.780Z,99533.69
2022-07-25T03:07:44.958Z,99520.84
2022-07-25T03:10:15.741Z,99524.94
2022-07-25T03:12:45.265Z,99518.25
2022-07-25T03:15:15.152Z,99518.91
2022-07-25T03:17:43.873Z,99514.59
2022-07-25T03:20:13.231Z,99508.75
2022-07-25T03:22:41.940Z,99513.97
2022-07-25T03:25:16.028Z,99519.66
2022-07-25T03:27:52.093Z,99526.47
2022-07-25T03:30:20.976Z,99515.97
2022-07-25T03:32:49.642Z,99518.22
2022-07-25T03:35:18.386Z,99510.41
2022-07-25T03:37:47.017Z,99515.34
2022-07-25T03:40:16.242Z,99514.81
2022-07-25T03:42:45.193Z,99513.50
2022-07-25T03:45:15.449Z,99511.16
2022-07-25T03:47:44.103Z,99515.25
2022-07-25T03:50:13.204Z,99513.66
2022-07-25T03:52:41.947Z,99511.59
2022-07-25T03:55:12.062Z,99508.41
2022-07-25T03:57:41.311Z,99506.00
2022-07-25T04:00:12.468Z,99500.94
2022-07-25T04:02:42.679Z,99501.56
2022-07-25T04:05:12.126Z,99499.97
2022-07-25T04:07:40.878Z,99496.78
2022-07-25T04:10:11.710Z,99503.28
2022-07-25T04:12:40.453Z,99501.66
2022-07-25T04:15:10.676Z,99500.88
2022-07-25T04:17:41.115Z,99496.94
2022-07-25T04:20:11.291Z,99491.03
2022-07-25T04:22:43.405Z,99495.97
2022-07-25T04:25:15.191Z,99485.19
2022-07-25T04:27:44.560Z,99495.13
2022-07-25T04:30:24.164Z,99488.16
2022-07-25T04:32:54.910Z,99487.69
2022-07-25T04:35:23.868Z,99483.41
2022-07-25T04:37:52.549Z,99486.09
2022-07-25T04:40:21.385Z,99491.78
2022-07-25T04:42:50.024Z,99481.63
2022-07-25T04:45:18.736Z,99486.69
2022-07-25T04:47:47.727Z,99477.84
2022-07-25T04:50:21.736Z,99472.78
2022-07-25T04:52:53.316Z,99477.38
2022-07-25T04:55:22.668Z,99484.94
2022-07-25T04:57:51.440Z,99476.88
2022-07-25T05:00:20.371Z,99487.63
2022-07-25T05:02:49.173Z,99478.44
2022-07-25T05:05:21.403Z,99477.66
2022-07-25T05:07:51.396Z,99473.06
2022-07-25T05:10:20.409Z,99474.16
2022-07-25T05:12:49.233Z,99469.56
2022-07-25T05:15:17.976Z,99474.97
2022-07-25T05:17:46.821Z,99471.47
2022-07-25T05:20:16.405Z,99467.69
2022-07-25T05:22:46.572Z,99476.25
2022-07-25T05:25:15.500Z,99468.19
2022-07-25T05:27:44.241Z,99475.66
2022-07-25T05:30:15.962Z,99478.81
2022-07-25T05:32:44.800Z,99472.34
2022-07-25T05:35:13.449Z,99472.34
2022-07-25T05:37:42.288Z,99470.63
2022-07-25T05:40:13.277Z,99473.59
2022-07-25T05:42:42.003Z,99462.53
2022-07-25T05:45:11.526Z,99459.53
2022-07-25T05:47:40.703Z,99455.75
2022-07-25T05:50:10.749Z,99442.75
2022-07-25T05:52:39.514Z,99452.13
2022-07-25T05:55:08.827Z,99449.63
2022-07-25T05:57:38.997Z,99443.13
2022-07-25T06:00:09.551Z,99446.59
2022-07-25T06:02:38.485Z,99444.41
2022-07-25T06:05:08.123Z,99442.69
2022-07-25T06:07:36.888Z,99436.69
2022-07-25T06:10:06.499Z,99428.28
2022-07-25T06:12:36.755Z,99430.03
2022-07-25T06:15:19.226Z,99435.91
2022-07-25T06:17:51.895Z,99440.38
2022-07-25T06:20:20.802Z,99424.72
2022-07-25T06:22:49.564Z,99432.66
2022-07-25T06:25:18.439Z,99430.91
2022-07-25T06:27:47.318Z,99431.88
2022-07-25T06:30:20.827Z,99429.34
2022-07-25T06:32:50.243Z,99428.13
2022-07-25T06:35:19.885Z,99429.06
2022-07-25T06:37:48.615Z,99419.25
2022-07-25T06:40:17.339Z,99416.72
2022-07-25T06:42:48.323Z,99425.94
2022-07-25T06:45:19.397Z,99422.31
2022-07-25T06:47:48.151Z,99416.47
2022-07-25T06:50:21.402Z,99408.69
2022-07-25T06:52:50.961Z,99406.34
2022-07-25T06:55:19.941Z,99398.09
2022-07-25T06:57:48.832Z,99403.81
2022-07-25T07:00:19.723Z,99398.41
2022-07-25T07:02:53.683Z,99402.53
2022-07-25T07:05:22.813Z,99400.94
2022-07-25T07:07:52.113Z,99401.75
2022-07-25T07:10:22.285Z,99401.25
2022-07-25T07:12:51.253Z,99401.25
2022-07-25T07:15:21.594Z,99413.16
2022-07-25T07:17:50.753Z,99402.84
2022-07-25T07:20:19.418Z,99406.28
2022-07-25T07:22:49.119Z,99398.97
2022-07-25T07:25:21.284Z,99392.44
2022-07-25T07:27:51.139Z,99387.78
2022-07-25T07:30:25.414Z,99381.25
2022-07-25T07:32:58.671Z,99386.75
2022-07-25T07:35:27.613Z,99391.16
2022-07-25T07:37:57.193Z,99381.53
2022-07-25T07:40:26.964Z,99391.34
2022-07-25T07:42:57.243Z,99396.03
2022-07-25T07:45:27.800Z,99384.16
2022-07-25T07:47:57.413Z,99390.47
2022-07-25T07:50:28.642Z,99396.84
2022-07-25T07:52:58.352Z,99393.84
2022-07-25T07:55:45.481Z,99400.59
2022-07-25T07:58:16.829Z,99387.91
2022-07-25T08:00:49.315Z,99406.56
2022-07-25T08:03:20.962Z,99386.84
2022-07-25T08:05:51.848Z,99400.28
2022-07-25T08:08:20.894Z,99392.78
2022-07-25T08:10:52.678Z,99409.94
2022-07-25T08:13:28.437Z,99392.81
2022-07-25T08:16:03.547Z,99388.84
2022-07-25T08:18:34.165Z,99397.69
2022-07-25T08:21:06.190Z,99397.13
2022-07-25T08:23:35.904Z,99396.22
2022-07-25T08:26:05.541Z,99405.84
2022-07-25T08:28:34.483Z,99409.66
2022-07-25T08:31:04.706Z,99403.31
2022-07-25T08:33:33.595Z,99408.28
2022-07-25T08:36:03.389Z,99407.81
2022-07-25T08:38:32.196Z,99403.41
2022-07-25T08:41:02.957Z,99399.88
2022-07-25T08:43:33.890Z,99393.19
2022-07-25T08:46:05.345Z,99403.53
2022-07-25T08:48:34.832Z,99396.34
2022-07-25T08:51:04.645Z,99390.00
2022-07-25T08:53:34.650Z,99397.22
2022-07-25T08:56:12.234Z,99400.56
2022-07-25T08:58:43.779Z,99392.28
2022-07-25T09:01:14.771Z,99391.69
2022-07-25T09:03:44.159Z,99391.50
2022-07-25T09:06:19.189Z,99391.31
2022-07-25T09:08:56.398Z,99388.09
2022-07-25T09:11:33.700Z,99394.19
2022-07-25T09:14:07.117Z,99381.19
2022-07-25T09:16:41.004Z,99374.06
2022-07-25T09:19:15.816Z,99367.22
2022-07-25T09:21:47.730Z,99368.25
2022-07-25T09:24:22.600Z,99371.59
2022-07-25T09:26:53.825Z,99363.59
2022-07-25T09:29:25.923Z,99372.34
2022-07-25T09:31:57.981Z,99372.50
2022-07-25T09:34:35.814Z,99365.28
2022-07-25T09:37:06.925Z,99370.09
2022-07-25T09:39:45.815Z,99358.56
2022-07-25T09:42:25.576Z,99349.38
2022-07-25T09:45:04.104Z,99355.78
2022-07-25T09:47:36.908Z,99354.81
2022-07-25T09:50:08.141Z,99356.13
2022-07-25T09:52:38.398Z,99350.09
2022-07-25T09:55:10.274Z,99342.50
2022-07-25T09:57:39.350Z,99339.53
2022-07-25T10:00:10.546Z,99338.91
2022-07-25T10:02:54.045Z,99337.09
2022-07-25T10:05:45.141Z,99329.81
2022-07-25T10:08:14.280Z,99330.72
2022-07-25T10:10:43.949Z,99326.97
2022-07-25T10:13:15.522Z,99327.13
2022-07-25T10:15:47.745Z,99323.41
2022-07-25T10:18:20.493Z,99313.41
2022-07-25T10:20:51.694Z,99315.78
2022-07-25T10:23:27.070Z,99311.22
2022-07-25T10:26:10.261Z,99315.94
2022-07-25T10:28:43.261Z,99326.19
2022-07-25T10:31:26.937Z,99320.78
2022-07-25T10:33:59.767Z,99325.19
2022-07-25T10:36:43.361Z,99317.41
2022-07-25T10:39:14.962Z,99321.78
2022-07-25T10:41:46.323Z,99319.91
2022-07-25T10:44:17.380Z,99324.19
2022-07-25T10:46:47.308Z,99310.97
2022-07-25T10:49:31.810Z,99306.31
2022-07-25T10:52:03.753Z,99302.78
2022-07-25T10:54:36.926Z,99300.09
2022-07-25T10:57:08.105Z,99303.63
2022-07-25T10:59:40.812Z,99295.84
2022-07-25T11:02:16.434Z,99294.72
2022-07-25T11:04:58.862Z,99292.03
2022-07-25T11:07:29.028Z,99278.06
2022-07-25T11:10:00.161Z,99281.66
2022-07-25T11:12:29.309Z,99283.69
2022-07-25T11:15:02.759Z,99275.97
2022-07-25T11:17:32.322Z,99285.41
2022-07-25T11:20:05.193Z,99278.06
2022-07-25T11:22:35.511Z,99280.88
2022-07-25T11:25:12.036Z,99264.13
2022-07-25T11:27:44.003Z,99270.44
2022-07-25T11:30:15.647Z,99264.25
2022-07-25T11:32:46.621Z,99269.38
2022-07-25T11:35:22.663Z,99269.41
2022-07-25T11:37:52.347Z,99278.41
2022-07-25T11:40:22.908Z,99276.94
2022-07-25T11:42:54.414Z,99269.97
2022-07-25T11:45:26.923Z,99277.03
2022-07-25T11:48:07.612Z,99271.19
2022-07-25T11:50:43.717Z,99270.41
2022-07-25T11:53:16.713Z,99280.59
2022-07-25T11:55:47.186Z,99277.09
2022-07-25T11:58:19.094Z,99277.56
2022-07-25T12:00:51.226Z,99268.56
2022-07-25T12:03:23.489Z,99270.19
2022-07-25T12:05:53.785Z,99264.75
2022-07-25T12:08:25.199Z,99272.19
2022-07-25T12:10:55.815Z,99266.75
2022-07-25T12:13:26.323Z,99259.72
2022-07-25T12:15:56.939Z,99253.53
2022-07-25T12:18:26.135Z,99265.66
2022-07-25T12:20:56.641Z,99262.56
2022-07-25T12:23:25.625Z,99261.38
2022-07-25T12:25:54.382Z,99248.91
2022-07-25T12:28:23.194Z,99256.38
2022-07-25T12:30:56.442Z,99245.88
2022-07-25T12:33:26.006Z,99241.56
2022-07-25T12:35:56.182Z,99238.47
2022-07-25T12:38:25.029Z,99235.38
2022-07-25T12:40:53.796Z,99236.16
2022-07-25T12:43:22.725Z,99231.50
2022-07-25T12:45:51.755Z,99217.50
2022-07-25T12:48:20.615Z,99216.75
2022-07-25T12:50:49.364Z,99215.97
2022-07-25T12:53:19.586Z,99223.41
2022-07-25T12:55:48.585Z,99206.22
2022-07-25T12:58:18.060Z,99224.22
2022-07-25T13:00:47.133Z,99210.97
2022-07-25T13:03:16.952Z,99213.72
2022-07-25T13:05:45.709Z,99206.69
2022-07-25T13:08:14.581Z,99215.72
2022-07-25T13:10:44.925Z,99212.59
2022-07-25T13:13:14.582Z,99210.63
2022-07-25T13:15:45.761Z,99207.50
2022-07-25T13:18:14.745Z,99210.63
2022-07-25T13:20:43.505Z,99214.13
2022-07-25T13:23:15.292Z,99212.59
2022-07-25T13:25:49.266Z,99215.72
2022-07-25T13:28:18.745Z,99213.78
2022-07-25T13:30:47.943Z,99222.78
2022-07-25T13:33:16.707Z,99218.47
2022-07-25T13:35:46.516Z,99224.72
2022-07-25T13:38:15.362Z,99225.03
2022-07-25T13:40:44.071Z,99225.44
2022-07-25T13:43:15.547Z,99223.44
2022-07-25T13:45:44.610Z,99223.06
2022-07-25T13:48:28.830Z,99223.81
2022-07-25T13:50:58.971Z,99218.28
2022-07-25T13:53:30.239Z,99210.84
2022-07-25T13:56:00.596Z,99210.00
2022-07-25T13:58:30.767Z,99206.44
2022-07-25T14:00:59.628Z,99209.94
2022-07-25T14:03:28.323Z,99209.88
2022-07-25T14:05:57.252Z,99225.09
2022-07-25T14:08:26.631Z,99218.00
2022-07-25T14:10:55.556Z,99218.38
2022-07-25T14:13:24.412Z,99207.75
2022-07-25T14:15:54.558Z,99218.66
2022-07-25T14:18:23.258Z,99215.88
2022-07-25T14:20:52.202Z,99209.97
2022-07-25T14:23:21.038Z,99211.09
2022-07-25T14:25:49.827Z,99229.44
2022-07-25T14:28:18.568Z,99213.38
2022-07-25T14:30:47.486Z,99236.41
2022-07-25T14:33:17.609Z,99239.47
2022-07-25T14:35:46.465Z,99237.03
2022-07-25T14:38:15.560Z,99234.63
2022-07-25T14:40:44.722Z,99232.25
2022-07-25T14:43:13.455Z,99236.13
2022-07-25T14:45:43.098Z,99229.84
2022-07-25T14:48:12.088Z,99228.25
2022-07-25T14:50:42.231Z,99237.22
2022-07-25T14:53:10.971Z,99232.53
2022-07-25T14:55:39.862Z,99233.69
2022-07-25T14:58:08.796Z,99221.59
2022-07-25T15:00:41.858Z,99220.03
2022-07-25T15:03:10.989Z,99212.25
2022-07-25T15:05:41.388Z,99215.41
2022-07-25T15:08:12.665Z,99218.94
2022-07-25T15:10:41.701Z,99204.94
2022-07-25T15:15:59.565Z,99202.66
2022-07-25T15:18:28.745Z,99194.09
2022-07-25T15:20:59.161Z,99185.91
2022-07-25T15:23:30.490Z,99189.47
2022-07-25T15:26:02.441Z,99180.94
2022-07-25T15:28:33.268Z,99178.22
2022-07-25T15:31:02.297Z,99173.56
2022-07-25T15:33:31.518Z,99175.16
2022-07-25T15:36:01.915Z,99175.56
2022-07-25T15:38:30.961Z,99169.34
2022-07-25T15:40:59.864Z,99175.59
2022-07-25T15:43:28.844Z,99178.75
2022-07-25T15:45:57.783Z,99166.66
2022-07-25T15:48:29.235Z,99164.72
2022-07-25T15:50:59.963Z,99166.31
2022-07-25T15:53:30.480Z,99160.84
2022-07-25T15:55:59.390Z,99155.00
2022-07-25T15:58:28.496Z,99158.53
2022-07-25T16:00:57.391Z,99147.63
2022-07-25T16:03:26.450Z,99141.00
2022-07-25T16:05:56.775Z,99139.44
2022-07-25T16:08:25.662Z,99141.78
2022-07-25T16:10:55.859Z,99155.78
2022-07-25T16:13:24.681Z,99144.81
2022-07-25T16:15:53.535Z,99162.41
2022-07-25T16:18:22.440Z,99162.38
2022-07-25T16:20:51.148Z,99152.97
2022-07-25T16:23:19.940Z,99159.63
2022-07-25T16:25:48.967Z,99164.28
2022-07-25T16:28:19.424Z,99170.94
2022-07-25T16:30:48.243Z,99174.03
2022-07-25T16:33:17.166Z,99190.81
2022-07-25T16:35:45.996Z,99193.13
2022-07-25T16:38:14.886Z,99208.34
2022-07-25T16:40:43.684Z,99208.72
2022-07-25T16:43:12.904Z,99211.38
2022-07-25T16:45:43.441Z,99212.91
2022-07-25T16:48:12.268Z,99229.72
2022-07-25T16:50:41.091Z,99232.38
2022-07-25T16:53:09.981Z,99236.28
2022-07-25T16:55:38.790Z,99248.34
2022-07-25T16:58:07.542Z,99248.75
2022-07-25T17:00:36.237Z,99254.59
2022-07-25T17:03:06.894Z,99261.97
2022-07-25T17:05:36.424Z,99267.00
2022-07-25T17:08:05.770Z,99271.22
2022-07-25T17:10:34.543Z,99273.53
2022-07-25T17:13:03.226Z,99274.22
2022-07-25T17:15:32.080Z,99283.13
2022-07-25T17:18:01.285Z,99274.47
2022-07-25T17:20:31.366Z,99274.44
2022-07-25T17:23:00.340Z,99288.41
2022-07-25T17:25:29.000Z,99293.03
2022-07-25T17:27:57.779Z,99290.66
2022-07-25T17:30:26.862Z,99300.72
2022-07-25T17:32:55.697Z,99306.53
2022-07-25T17:35:24.381Z,99307.25
2022-07-25T17:37:54.912Z,99315.06
2022-07-25T17:40:23.634Z,99322.81
2022-07-25T17:42:52.362Z,99333.31
2022-07-25T17:45:22.279Z,99330.13
2022-07-25T17:47:52.654Z,99329.66
2022-07-25T17:50:28.552Z,99326.47
2022-07-25T17:53:00.209Z,99319.72
2022-07-25T17:55:29.820Z,99329.41
2022-07-25T17:58:00.751Z,99327.03
2022-07-25T18:00:29.400Z,99330.88
2022-07-25T18:02:58.395Z,99333.09
2022-07-25T18:05:27.795Z,99329.53
2022-07-25T18:07:56.704Z,99348.59
2022-07-25T18:10:26.821Z,99342.66
2022-07-25T18:12:55.615Z,99349.97
2022-07-25T18:15:25.409Z,99354.59
2022-07-25T18:17:54.219Z,99361.53
2022-07-25T18:20:23.070Z,99366.47
2022-07-25T18:22:51.850Z,99366.00
2022-07-25T18:25:20.490Z,99364.72
2022-07-25T18:27:50.492Z,99376.34
2022-07-25T18:30:19.157Z,99377.84
2022-07-25T18:32:47.855Z,99379.72
2022-07-25T18:35:16.689Z,99385.13
2022-07-25T18:37:45.434Z,99385.06
2022-07-25T18:40:15.198Z,99392.81
2022-07-25T18:42:43.889Z,99395.09
2022-07-25T18:45:14.720Z,99390.38
2022-07-25T18:47:43.461Z,99404.31
2022-07-25T18:50:12.730Z,99395.97
2022-07-25T18:52:42.443Z,99404.06
2022-07-25T18:55:11.865Z,99405.94
2022-07-25T18:57:40.636Z,99407.03
2022-07-25T19:00:11.945Z,99409.69
2022-07-25T19:02:42.028Z,99409.25
2022-07-25T19:05:11.063Z,99413.13
2022-07-25T19:07:41.108Z,99423.50
2022-07-25T19:10:11.422Z,99431.63
2022-07-25T19:12:40.188Z,99436.19
2022-07-25T19:15:10.048Z,99429.44
2022-07-25T19:17:38.890Z,99444.94
2022-07-25T19:20:11.790Z,99449.50
2022-07-25T19:22:40.543Z,99458.41
2022-07-25T19:25:11.052Z,99464.53
2022-07-25T19:27:41.294Z,99475.69
2022-07-25T19:30:16.880Z,99480.69
2022-07-25T19:32:47.155Z,99490.31
2022-07-25T19:35:24.105Z,99497.59
2022-07-25T19:37:54.881Z,99504.88
2022-07-25T19:40:23.843Z,99505.22
2022-07-25T19:42:52.495Z,99508.31
2022-07-25T19:45:21.213Z,99511.75
2022-07-25T19:47:49.914Z,99512.44
2022-07-25T19:50:20.322Z,99523.63
2022-07-25T19:52:48.977Z,99515.69
2022-07-25T19:55:17.667Z,99530.00
2022-07-25T19:57:46.384Z,99519.41
2022-07-25T20:00:16.151Z,99518.41
2022-07-25T20:02:44.983Z,99516.28
2022-07-25T20:05:13.805Z,99510.75
2022-07-25T20:07:43.859Z,99511.81
2022-07-25T20:10:12.818Z,99516.38
2022-07-25T20:12:46.443Z,99518.56
2022-07-25T20:15:15.445Z,99517.31
2022-07-25T20:17:44.143Z,99527.75
2022-07-25T20:20:13.196Z,99532.31
2022-07-25T20:22:43.558Z,99536.88
2022-07-25T20:25:14.517Z,99541.41
2022-07-25T20:27:43.179Z,99553.78
2022-07-25T20:30:13.889Z,99556.75
2022-07-25T20:32:43.017Z,99551.19
2022-07-25T20:35:11.813Z,99565.03
2022-07-25T20:37:40.516Z,99570.78
2022-07-25T20:40:13.315Z,99576.13
2022-07-25T20:42:42.253Z,99582.59
2022-07-25T20:45:12.007Z,99591.03
2022-07-25T20:47:40.637Z,99598.72
2022-07-25T20:50:10.653Z,99603.63
2022-07-25T20:52:39.824Z,99598.84
2022-07-25T20:55:10.908Z,99602.25
2022-07-25T20:57:39.608Z,99606.00
2022-07-25T21:00:10.263Z,99608.63
2022-07-25T21:02:39.021Z,99618.59
2022-07-25T21:05:09.044Z,99611.44
2022-07-25T21:07:37.798Z,99624.59
2022-07-25T21:10:07.801Z,99623.22
2022-07-25T21:12:38.351Z,99623.56
2022-07-25T21:15:09.130Z,99616.41
2022-07-25T21:17:37.862Z,99624.81
2022-07-25T21:20:08.241Z,99624.69
2022-07-25T21:22:36.951Z,99631.59
2022-07-25T21:25:07.180Z,99630.69
2022-07-25T21:27:37.373Z,99629.78
2022-07-25T21:30:08.015Z,99641.31
2022-07-25T21:32:37.161Z,99635.78
2022-07-25T21:35:06.995Z,99638.38
2022-07-25T21:37:35.830Z,99642.59
2022-07-25T21:40:05.055Z,99635.91
2022-07-25T21:42:33.869Z,99650.13
2022-07-25T21:45:04.174Z,99645.72
2022-07-25T21:47:32.848Z,99648.63
2022-07-25T21:50:24.911Z,99646.59
2022-07-25T21:52:54.092Z,99647.16
2022-07-25T21:55:23.489Z,99643.97
2022-07-25T21:57:52.471Z,99647.34
2022-07-25T22:00:23.289Z,99636.38
2022-07-25T22:02:52.299Z,99638.66
2022-07-25T22:05:21.130Z,99633.91
2022-07-25T22:07:49.963Z,99633.00
2022-07-25T22:10:21.352Z,99622.47
2022-07-25T22:12:50.388Z,99627.75
2022-07-25T22:15:19.134Z,99626.53
2022-07-25T22:17:50.280Z,99633.41
2022-07-25T22:20:20.033Z,99632.16
2022-07-25T22:22:49.483Z,99636.78
2022-07-25T22:25:18.775Z,99635.09
2022-07-25T22:27:47.442Z,99645.47
2022-07-25T22:30:19.261Z,99646.94
2022-07-25T22:32:50.307Z,99657.66
2022-07-25T22:35:19.506Z,99663.72
2022-07-25T22:37:48.321Z,99679.22
2022-07-25T22:40:17.001Z,99669.81
2022-07-25T22:42:45.652Z,99671.25
2022-07-25T22:45:14.425Z,99668.91
2022-07-25T22:47:43.186Z,99662.22
2022-07-25T22:50:13.357Z,99678.81
2022-07-25T22:52:42.083Z,99683.31
2022-07-25T22:55:11.413Z,99677.09
2022-07-25T22:57:40.063Z,99672.34
2022-07-25T23:00:12.292Z,99672.66
2022-07-25T23:02:41.539Z,99680.34
2022-07-25T23:05:12.377Z,99683.72
2022-07-25T23:07:41.135Z,99676.69
2022-07-25T23:10:11.192Z,99674.34
2022-07-25T23:12:40.086Z,99682.81
2022-07-25T23:15:09.975Z,99678.81
2022-07-25T23:17:38.705Z,99677.25
2022-07-25T23:20:09.247Z,99681.72
2022-07-25T23:22:39.403Z,99680.16
2022-07-25T23:25:10.649Z,99684.31
2022-07-25T23:27:40.009Z,99680.00
2022-07-25T23:30:10.581Z,99676.84
2022-07-25T23:32:39.273Z,99689.91
2022-07-25T23:35:09.051Z,99694.91
2022-07-25T23:37:39.196Z,99706.06
2022-07-25T23:40:09.346Z,99707.19
2022-07-25T23:42:38.000Z,99704.34
2022-07-25T23:45:08.082Z,99705.13
2022-07-25T23:47:39.702Z,99702.75
2022-07-25T23:50:11.642Z,99700.34
2022-07-25T23:52:41.859Z,99706.09
2022-07-25T23:55:11.551Z,99709.09
2022-07-25T23:57:40.222Z,99707.53
